createdAt,value
2023-04-05T00:00:09.846Z,62.22
2023-04-05T00:02:40.656Z,63.25
2023-04-05T00:05:09.756Z,62.10
2023-04-05T00:07:39.480Z,62.65
2023-04-05T00:10:07.784Z,64.63
2023-04-05T00:12:35.261Z,66.86
2023-04-05T00:15:04.592Z,69.06
2023-04-05T00:17:32.167Z,70.04
2023-04-05T00:19:59.890Z,70.00
2023-04-05T00:22:31.746Z,70.99
2023-04-05T00:25:00.690Z,70.75
2023-04-05T00:27:28.400Z,71.34
2023-04-05T00:29:56.105Z,70.43
2023-04-05T00:32:24.039Z,69.84
2023-04-05T00:34:51.919Z,69.84
2023-04-05T00:37:19.433Z,67.95
2023-04-05T00:39:46.938Z,68.82
2023-04-05T00:42:15.860Z,70.51
2023-04-05T00:44:43.457Z,71.07
2023-04-05T00:47:10.975Z,72.86
2023-04-05T00:49:38.850Z,73.90
2023-04-05T00:52:06.625Z,73.27
2023-04-05T00:54:34.197Z,72.03
2023-04-05T00:57:01.988Z,74.38
2023-04-05T00:59:30.843Z,75.18
2023-04-05T01:02:04.891Z,75.69
2023-04-05T01:04:33.969Z,76.40
2023-04-05T01:07:07.184Z,76.53
2023-04-05T01:09:38.940Z,76.43
2023-04-05T01:12:08.470Z,76.79
2023-04-05T01:14:49.951Z,77.58
2023-04-05T01:17:21.971Z,77.73
2023-04-05T01:19:53.186Z,76.60
2023-04-05T01:22:43.790Z,76.76
2023-04-05T01:25:49.243Z,77.26
2023-04-05T01:28:29.411Z,77.13
2023-04-05T01:31:03.237Z,78.46
2023-04-05T01:33:36.446Z,78.40
2023-04-05T01:36:07.945Z,78.62
2023-04-05T01:38:37.993Z,78.49
2023-04-05T01:41:05.652Z,78.28
2023-04-05T01:43:33.237Z,78.23
2023-04-05T01:46:02.166Z,78.40
2023-04-05T01:48:29.718Z,79.56
2023-04-05T01:50:57.161Z,79.96
2023-04-05T01:53:24.634Z,80.00
2023-04-05T01:55:52.100Z,80.72
2023-04-05T01:58:19.560Z,81.01
2023-04-05T02:00:47.153Z,80.80
2023-04-05T02:03:16.241Z,80.80
2023-04-05T02:05:44.116Z,80.70
2023-04-05T02:08:11.692Z,80.87
2023-04-05T02:10:39.513Z,81.44
2023-04-05T02:13:07.341Z,81.13
2023-04-05T02:15:35.162Z,81.59
2023-04-05T02:18:03.640Z,82.61
2023-04-05T02:20:32.897Z,82.59
2023-04-05T02:23:00.522Z,82.30
2023-04-05T02:25:28.001Z,82.41
2023-04-05T02:27:55.459Z,81.19
2023-04-05T02:30:22.892Z,81.78
2023-04-05T02:32:50.389Z,81.50
2023-04-05T02:35:18.242Z,82.65
2023-04-05T02:37:47.177Z,83.07
2023-04-05T02:40:15.786Z,83.69
2023-04-05T02:42:43.255Z,83.34
2023-04-05T02:45:11.431Z,83.73
2023-04-05T02:47:39.952Z,83.95
2023-04-05T02:50:08.437Z,83.84
2023-04-05T02:52:37.464Z,83.83
2023-04-05T02:55:07.301Z,83.43
2023-04-05T02:57:34.764Z,84.24
2023-04-05T03:00:02.450Z,84.01
2023-04-05T03:02:29.995Z,83.80
2023-04-05T03:04:57.541Z,83.74
2023-04-05T03:07:26.564Z,83.75
2023-04-05T03:09:54.279Z,83.70
2023-04-05T03:12:23.100Z,84.06
2023-04-05T03:14:50.651Z,84.25
2023-04-05T03:17:18.208Z,84.37
2023-04-05T03:19:46.395Z,84.69
2023-04-05T03:22:13.903Z,85.63
2023-04-05T03:24:42.442Z,85.25
2023-04-05T03:27:09.981Z,84.92
2023-04-05T03:29:38.758Z,84.65
2023-04-05T03:32:06.496Z,83.60
2023-04-05T03:34:33.969Z,81.95
2023-04-05T03:37:01.492Z,78.92
2023-04-05T03:39:29.265Z,78.24
2023-04-05T03:41:57.496Z,77.39
2023-04-05T03:44:24.989Z,76.95
2023-04-05T03:46:53.911Z,77.19
2023-04-05T03:49:21.900Z,76.81
2023-04-05T03:51:49.463Z,76.20
2023-04-05T03:54:17.018Z,75.23
2023-04-05T03:56:44.567Z,76.07
2023-04-05T03:59:12.081Z,75.24
2023-04-05T04:01:39.587Z,76.34
2023-04-05T04:04:08.452Z,75.66
2023-04-05T04:06:37.190Z,75.16
2023-04-05T04:09:05.650Z,74.53
2023-04-05T04:11:33.090Z,74.57
2023-04-05T04:14:00.652Z,74.29
2023-04-05T04:16:29.042Z,74.80
2023-04-05T04:18:56.943Z,74.50
2023-04-05T04:21:25.710Z,73.73
2023-04-05T04:23:53.179Z,73.53
2023-04-05T04:26:28.687Z,73.57
2023-04-05T04:28:56.224Z,73.70
2023-04-05T04:31:23.733Z,73.39
2023-04-05T04:33:51.624Z,73.67
2023-04-05T04:36:26.484Z,74.09
2023-04-05T04:38:55.362Z,73.59
2023-04-05T04:41:26.662Z,74.19
2023-04-05T04:43:54.957Z,73.59
2023-04-05T04:46:30.524Z,73.52
2023-04-05T04:48:58.666Z,74.06
2023-04-05T04:51:26.169Z,73.32
2023-04-05T04:53:55.174Z,73.92
2023-04-05T04:56:22.634Z,73.66
2023-04-05T04:58:50.139Z,74.01
2023-04-05T05:01:17.723Z,73.30
2023-04-05T05:03:45.446Z,73.55
2023-04-05T05:06:12.928Z,73.71
2023-04-05T05:08:40.438Z,73.38
2023-04-05T05:11:09.537Z,72.98
2023-04-05T05:13:37.243Z,73.30
2023-04-05T05:16:05.493Z,72.89
2023-04-05T05:18:32.961Z,73.08
2023-04-05T05:21:00.494Z,73.47
2023-04-05T05:23:28.537Z,72.86
2023-04-05T05:25:58.962Z,72.17
2023-04-05T05:28:30.242Z,73.22
2023-04-05T05:30:57.800Z,72.71
2023-04-05T05:33:25.645Z,72.57
2023-04-05T05:35:53.105Z,72.97
2023-04-05T05:38:20.627Z,72.64
2023-04-05T05:40:48.108Z,72.33
2023-04-05T05:43:16.213Z,72.08
2023-04-05T05:45:45.039Z,71.87
2023-04-05T05:48:12.531Z,70.75
2023-04-05T05:50:40.596Z,72.18
2023-04-05T05:53:08.370Z,72.32
2023-04-05T05:55:35.898Z,71.14
2023-04-05T05:58:03.736Z,70.87
2023-04-05T06:00:31.403Z,70.34
2023-04-05T06:03:01.621Z,70.48
2023-04-05T06:05:29.211Z,70.08
2023-04-05T06:07:56.708Z,69.84
2023-04-05T06:10:25.533Z,70.04
2023-04-05T06:12:52.982Z,69.12
2023-04-05T06:15:20.506Z,70.15
2023-04-05T06:17:48.037Z,70.26
2023-04-05T06:20:17.110Z,69.33
2023-04-05T06:22:44.577Z,69.21
2023-04-05T06:25:12.965Z,68.56
2023-04-05T06:27:40.534Z,68.91
2023-04-05T06:30:09.272Z,68.38
2023-04-05T06:32:36.958Z,68.35
2023-04-05T06:35:05.022Z,68.43
2023-04-05T06:37:33.887Z,67.66
2023-04-05T06:40:01.351Z,67.50
2023-04-05T06:42:28.936Z,67.68
2023-04-05T06:44:56.428Z,67.17
2023-04-05T06:47:23.926Z,66.31
2023-04-05T06:49:51.493Z,65.94
2023-04-05T06:52:18.959Z,66.12
2023-04-05T06:54:47.753Z,65.27
2023-04-05T06:57:15.286Z,65.23
2023-04-05T06:59:42.757Z,64.75
2023-04-05T07:02:10.398Z,64.25
2023-04-05T07:04:37.924Z,64.56
2023-04-05T07:07:06.161Z,64.24
2023-04-05T07:09:34.206Z,62.91
2023-04-05T07:12:06.411Z,62.95
2023-04-05T07:14:34.932Z,61.69
2023-04-05T07:17:02.651Z,61.07
2023-04-05T07:19:30.273Z,60.43
2023-04-05T07:21:57.940Z,60.98
2023-04-05T07:24:25.511Z,60.10
2023-04-05T07:26:53.192Z,60.97
2023-04-05T07:29:22.084Z,60.29
2023-04-05T07:31:49.599Z,59.99
2023-04-05T07:34:19.966Z,59.41
2023-04-05T07:36:47.860Z,58.12
2023-04-05T07:39:15.857Z,58.89
2023-04-05T07:41:43.476Z,58.52
2023-04-05T07:44:11.445Z,58.26
2023-04-05T07:46:45.119Z,57.81
2023-04-05T07:49:14.540Z,57.98
2023-04-05T07:51:43.330Z,56.84
2023-04-05T07:54:10.872Z,56.25
2023-04-05T07:56:38.364Z,55.95
2023-04-05T07:59:05.903Z,56.42
2023-04-05T08:01:33.397Z,56.17
2023-04-05T08:04:02.238Z,56.35
2023-04-05T08:06:29.787Z,56.00
2023-04-05T08:08:57.283Z,56.55
2023-04-05T08:11:26.106Z,56.40
2023-04-05T08:13:54.423Z,55.36
2023-04-05T08:16:21.919Z,56.26
2023-04-05T08:18:49.477Z,55.30
2023-04-05T08:21:18.342Z,54.54
2023-04-05T08:23:45.970Z,54.21
2023-04-05T08:26:13.686Z,53.24
2023-04-05T08:28:41.187Z,53.95
2023-04-05T08:31:08.848Z,52.65
2023-04-05T08:33:36.777Z,51.78
2023-04-05T08:36:08.231Z,52.23
2023-04-05T08:38:37.269Z,51.91
2023-04-05T08:41:09.466Z,52.80
2023-04-05T08:43:49.407Z,51.61
2023-04-05T08:46:17.436Z,52.21
2023-04-05T08:48:44.922Z,51.85
2023-04-05T08:51:12.670Z,51.41
2023-04-05T08:53:41.515Z,49.44
2023-04-05T08:56:09.972Z,50.12
2023-04-05T08:58:38.656Z,49.33
2023-04-05T09:01:06.888Z,49.33
2023-04-05T09:03:37.469Z,47.71
2023-04-05T09:06:07.282Z,48.52
2023-04-05T09:08:34.859Z,46.83
2023-04-05T09:11:03.714Z,47.82
2023-04-05T09:13:32.016Z,48.09
2023-04-05T09:16:02.322Z,47.18
2023-04-05T09:18:29.901Z,46.87
2023-04-05T09:20:58.752Z,47.68
2023-04-05T09:23:26.620Z,48.10
2023-04-05T09:25:54.142Z,48.22
2023-04-05T09:28:22.943Z,48.79
2023-04-05T09:30:50.460Z,46.47
2023-04-05T09:33:21.120Z,47.37
2023-04-05T09:35:50.877Z,45.95
2023-04-05T09:38:18.383Z,46.15
2023-04-05T09:40:47.076Z,43.74
2023-04-05T09:43:16.152Z,45.14
2023-04-05T09:45:46.028Z,46.84
2023-04-05T09:48:13.627Z,45.74
2023-04-05T09:50:41.395Z,47.03
2023-04-05T09:53:15.561Z,44.15
2023-04-05T09:55:43.641Z,44.89
2023-04-05T09:58:13.293Z,44.54
2023-04-05T10:01:03.262Z,44.35
2023-04-05T10:03:47.732Z,43.93
2023-04-05T10:06:15.553Z,43.78
2023-04-05T10:08:43.135Z,43.96
2023-04-05T10:11:13.478Z,43.59
2023-04-05T10:13:41.307Z,44.06
2023-04-05T10:16:13.338Z,44.31
2023-04-05T10:18:46.183Z,42.24
2023-04-05T10:21:16.513Z,42.29
2023-04-05T10:23:45.621Z,43.71
2023-04-05T10:26:17.924Z,42.62
2023-04-05T10:28:48.543Z,42.50
2023-04-05T10:31:36.385Z,42.13
2023-04-05T10:34:07.029Z,43.00
2023-04-05T10:36:40.735Z,43.34
2023-04-05T10:39:13.822Z,42.03
2023-04-05T10:41:44.043Z,41.90
2023-04-05T10:44:25.104Z,41.03
2023-04-05T10:46:56.331Z,42.02
2023-04-05T10:49:30.567Z,41.08
2023-04-05T10:51:58.547Z,40.75
2023-04-05T10:54:26.134Z,40.67
2023-04-05T10:56:54.088Z,40.35
2023-04-05T10:59:21.944Z,40.68
2023-04-05T11:01:49.889Z,40.65
2023-04-05T11:04:18.987Z,40.08
2023-04-05T11:06:47.957Z,41.02
2023-04-05T11:09:17.436Z,39.44
2023-04-05T11:11:46.299Z,39.18
2023-04-05T11:14:23.512Z,39.83
2023-04-05T11:16:55.329Z,38.54
2023-04-05T11:20:01.848Z,38.77
2023-04-05T11:22:30.755Z,40.00
2023-04-05T11:25:01.733Z,42.26
2023-04-05T11:27:30.877Z,40.20
2023-04-05T11:29:59.620Z,40.38
2023-04-05T11:32:40.691Z,40.13
2023-04-05T11:35:14.722Z,39.79
2023-04-05T11:38:08.372Z,39.03
2023-04-05T11:40:36.700Z,38.67
2023-04-05T11:43:06.061Z,37.29
2023-04-05T11:45:34.355Z,39.01
2023-04-05T11:48:02.538Z,37.93
2023-04-05T11:50:31.384Z,38.11
2023-04-05T11:53:22.943Z,36.67
2023-04-05T11:55:51.759Z,36.61
2023-04-05T11:58:21.369Z,37.18
2023-04-05T12:00:59.219Z,37.37
2023-04-05T12:03:28.860Z,36.38
2023-04-05T12:05:59.624Z,35.52
2023-04-05T12:08:39.787Z,36.02
2023-04-05T12:11:08.698Z,36.59
2023-04-05T12:13:36.626Z,36.57
2023-04-05T12:16:05.932Z,35.68
2023-04-05T12:18:34.458Z,33.19
2023-04-05T12:21:07.329Z,33.27
2023-04-05T12:23:35.856Z,33.60
2023-04-05T12:26:04.057Z,35.26
2023-04-05T12:28:53.464Z,33.42
2023-04-05T12:31:36.682Z,32.67
2023-04-05T12:34:04.235Z,33.30
2023-04-05T12:36:33.243Z,32.79
2023-04-05T12:39:00.908Z,33.92
2023-04-05T12:41:29.762Z,33.84
2023-04-05T12:44:01.438Z,33.50
2023-04-05T12:46:40.294Z,35.90
2023-04-05T12:49:07.907Z,33.65
2023-04-05T12:51:36.741Z,33.57
2023-04-05T12:54:04.934Z,32.50
2023-04-05T12:56:32.495Z,33.16
2023-04-05T12:59:00.303Z,34.93
2023-04-05T13:01:27.833Z,33.32
2023-04-05T13:04:01.884Z,33.77
2023-04-05T13:06:41.777Z,33.30
2023-04-05T13:09:09.240Z,33.67
2023-04-05T13:11:36.712Z,32.17
2023-04-05T13:14:04.285Z,31.90
2023-04-05T13:16:31.771Z,31.83
2023-04-05T13:18:59.394Z,31.81
2023-04-05T13:21:27.169Z,31.88
2023-04-05T13:23:55.969Z,31.70
2023-04-05T13:26:23.508Z,32.42
2023-04-05T13:28:51.020Z,31.55
2023-04-05T13:31:18.545Z,31.85
2023-04-05T13:33:46.125Z,30.18
2023-04-05T13:36:13.629Z,30.78
2023-04-05T13:38:41.121Z,30.00
2023-04-05T13:41:09.981Z,30.73
2023-04-05T13:43:37.517Z,30.48
2023-04-05T13:46:05.705Z,29.97
2023-04-05T13:48:33.143Z,31.08
2023-04-05T13:51:00.595Z,33.26
2023-04-05T13:53:28.708Z,30.61
2023-04-05T13:55:56.399Z,31.34
2023-04-05T13:58:25.218Z,30.89
2023-04-05T14:00:53.440Z,32.98
2023-04-05T14:03:21.160Z,31.76
2023-04-05T14:05:50.681Z,31.42
2023-04-05T14:08:19.594Z,32.57
2023-04-05T14:10:47.049Z,30.97
2023-04-05T14:13:16.240Z,29.39
2023-04-05T14:15:45.068Z,30.18
2023-04-05T14:18:12.634Z,30.20
2023-04-05T14:20:40.478Z,29.51
2023-04-05T14:23:08.240Z,29.99
2023-04-05T14:25:35.712Z,30.67
2023-04-05T14:28:03.422Z,29.82
2023-04-05T14:30:31.164Z,31.00
2023-04-05T14:33:00.430Z,30.13
2023-04-05T14:35:28.077Z,30.23
2023-04-05T14:37:55.613Z,29.70
2023-04-05T14:40:23.240Z,31.17
2023-04-05T14:42:50.932Z,30.33
2023-04-05T14:45:18.792Z,30.23
2023-04-05T14:47:46.314Z,29.62
2023-04-05T14:50:15.243Z,29.79
2023-04-05T14:52:42.722Z,29.78
2023-04-05T14:55:12.300Z,30.18
2023-04-05T14:57:39.806Z,29.46
2023-04-05T15:00:08.998Z,30.59
2023-04-05T15:02:37.802Z,29.46
2023-04-05T15:05:06.223Z,30.21
2023-04-05T15:07:35.046Z,32.62
2023-04-05T15:10:02.563Z,32.43
2023-04-05T15:12:30.034Z,32.91
2023-04-05T15:14:57.625Z,34.09
2023-04-05T15:17:25.529Z,30.57
2023-04-05T15:19:53.013Z,30.30
2023-04-05T15:22:23.328Z,30.08
2023-04-05T15:24:52.194Z,29.71
2023-04-05T15:27:19.678Z,30.66
2023-04-05T15:29:47.176Z,30.41
2023-04-05T15:32:14.643Z,31.42
2023-04-05T15:34:42.105Z,31.25
2023-04-05T15:37:10.170Z,33.58
2023-04-05T15:39:37.728Z,34.63
2023-04-05T15:42:06.757Z,31.48
2023-04-05T15:44:34.306Z,31.92
2023-04-05T15:47:03.549Z,31.01
2023-04-05T15:49:31.062Z,31.07
2023-04-05T15:52:00.018Z,31.91
2023-04-05T15:54:27.589Z,32.03
2023-04-05T15:56:55.164Z,34.05
2023-04-05T15:59:23.993Z,31.98
2023-04-05T16:01:51.618Z,31.54
2023-04-05T16:04:19.318Z,32.24
2023-04-05T16:06:46.863Z,32.44
2023-04-05T16:09:14.310Z,32.67
2023-04-05T16:11:41.773Z,33.50
2023-04-05T16:14:11.353Z,33.49
2023-04-05T16:16:52.397Z,35.66
2023-04-05T16:19:21.915Z,34.97
2023-04-05T16:21:49.529Z,33.79
2023-04-05T16:24:17.063Z,32.74
2023-04-05T16:26:44.615Z,33.71
2023-04-05T16:29:12.157Z,33.49
2023-04-05T16:31:41.019Z,33.03
2023-04-05T16:34:08.491Z,33.47
2023-04-05T16:36:36.209Z,33.29
2023-04-05T16:39:04.145Z,34.09
2023-04-05T16:41:31.829Z,32.97
2023-04-05T16:43:59.320Z,34.80
2023-04-05T16:46:30.582Z,34.05
2023-04-05T16:48:59.525Z,33.26
2023-04-05T16:51:27.417Z,33.84
2023-04-05T16:53:54.880Z,33.38
2023-04-05T16:56:22.788Z,34.64
2023-04-05T16:58:50.366Z,33.91
2023-04-05T17:01:18.027Z,33.25
2023-04-05T17:03:47.122Z,34.11
2023-04-05T17:06:16.712Z,33.55
2023-04-05T17:08:44.283Z,33.60
2023-04-05T17:11:11.751Z,34.73
2023-04-05T17:13:39.291Z,33.99
2023-04-05T17:16:07.802Z,33.53
2023-04-05T17:18:35.481Z,34.38
2023-04-05T17:21:03.009Z,33.20
2023-04-05T17:23:31.800Z,34.40
2023-04-05T17:25:59.433Z,34.38
2023-04-05T17:28:26.988Z,34.87
2023-04-05T17:30:54.548Z,34.15
2023-04-05T17:33:22.055Z,34.57
2023-04-05T17:35:50.074Z,33.93
2023-04-05T17:38:17.571Z,34.84
2023-04-05T17:40:46.397Z,34.23
2023-04-05T17:43:14.103Z,34.18
2023-04-05T17:45:41.675Z,34.93
2023-04-05T17:48:09.423Z,34.79
2023-04-05T17:50:37.136Z,34.65
2023-04-05T17:53:04.841Z,34.63
2023-04-05T17:55:33.564Z,35.34
2023-04-05T17:58:02.440Z,35.21
2023-04-05T18:00:29.991Z,35.47
2023-04-05T18:02:57.521Z,34.73
2023-04-05T18:05:27.005Z,34.52
2023-04-05T18:07:54.571Z,33.73
2023-04-05T18:10:23.412Z,34.48
2023-04-05T18:12:51.521Z,34.71
2023-04-05T18:15:20.625Z,35.03
2023-04-05T18:17:48.129Z,35.34
2023-04-05T18:20:15.628Z,35.78
2023-04-05T18:22:43.224Z,34.73
2023-04-05T18:25:11.745Z,35.46
2023-04-05T18:27:39.314Z,36.08
2023-04-05T18:30:08.278Z,42.32
2023-04-05T18:32:37.263Z,43.54
2023-04-05T18:35:05.259Z,44.84
2023-04-05T18:37:32.777Z,46.05
2023-04-05T18:40:00.382Z,45.54
2023-04-05T18:42:27.840Z,46.29
2023-04-05T18:44:55.582Z,44.99
2023-04-05T18:47:23.331Z,44.98
2023-04-05T18:49:52.221Z,45.19
2023-04-05T18:52:23.641Z,45.13
2023-04-05T18:54:51.217Z,47.58
2023-04-05T18:57:18.818Z,49.03
2023-04-05T18:59:46.358Z,49.84
2023-04-05T19:02:13.887Z,49.20
2023-04-05T19:04:41.388Z,48.90
2023-04-05T19:07:10.216Z,49.30
2023-04-05T19:09:38.448Z,49.50
2023-04-05T19:12:06.626Z,50.76
2023-04-05T19:14:34.772Z,50.37
2023-04-05T19:17:02.361Z,51.48
2023-04-05T19:19:30.042Z,52.01
2023-04-05T19:21:58.402Z,51.57
2023-04-05T19:24:27.737Z,52.75
2023-04-05T19:26:56.787Z,53.11
2023-04-05T19:29:24.346Z,53.48
2023-04-05T19:31:52.043Z,54.11
2023-04-05T19:34:19.718Z,55.26
2023-04-05T19:36:47.295Z,57.83
2023-04-05T19:39:14.831Z,58.68
2023-04-05T19:41:44.426Z,58.20
2023-04-05T19:44:12.966Z,56.61
2023-04-05T19:46:41.408Z,57.41
2023-04-05T19:49:10.914Z,56.71
2023-04-05T19:51:39.023Z,56.77
2023-04-05T19:54:11.682Z,56.38
2023-04-05T19:56:39.367Z,56.54
2023-04-05T19:59:25.947Z,56.70
2023-04-05T20:01:53.452Z,58.23
2023-04-05T20:04:22.552Z,58.52
2023-04-05T20:06:53.171Z,58.23
2023-04-05T20:09:21.253Z,58.70
2023-04-05T20:11:51.266Z,58.89
2023-04-05T20:14:21.163Z,58.56
2023-04-05T20:16:49.637Z,57.93
2023-04-05T20:19:17.433Z,57.87
2023-04-05T20:21:45.638Z,57.81
2023-04-05T20:24:16.580Z,57.32
2023-04-05T20:26:44.437Z,57.03
2023-04-05T20:29:16.753Z,57.63
2023-04-05T20:31:46.175Z,58.76
2023-04-05T20:34:15.365Z,57.87
2023-04-05T20:36:46.374Z,59.18
2023-04-05T20:39:13.850Z,61.43
2023-04-05T20:41:41.446Z,60.85
2023-04-05T20:44:08.923Z,61.95
2023-04-05T20:46:36.467Z,62.41
2023-04-05T20:49:05.752Z,62.76
2023-04-05T20:51:33.268Z,65.08
2023-04-05T20:54:01.145Z,65.54
2023-04-05T20:56:28.620Z,64.48
2023-04-05T20:58:56.386Z,63.44
2023-04-05T21:01:24.372Z,62.77
2023-04-05T21:03:53.046Z,62.59
2023-04-05T21:06:22.158Z,63.69
2023-04-05T21:08:49.630Z,63.98
2023-04-05T21:11:17.099Z,64.72
2023-04-05T21:13:44.536Z,65.26
2023-04-05T21:16:12.240Z,65.43
2023-04-05T21:18:39.966Z,65.73
2023-04-05T21:21:07.480Z,67.03
2023-04-05T21:23:36.426Z,68.15
2023-04-05T21:26:04.542Z,67.30
2023-04-05T21:28:32.147Z,67.37
2023-04-05T21:30:59.669Z,67.48
2023-04-05T21:33:27.221Z,67.36
2023-04-05T21:35:54.730Z,67.24
2023-04-05T21:38:22.212Z,66.54
2023-04-05T21:40:51.085Z,65.16
2023-04-05T21:43:18.580Z,63.76
2023-04-05T21:45:46.864Z,64.00
2023-04-05T21:48:14.350Z,64.12
2023-04-05T21:50:41.877Z,63.57
2023-04-05T21:53:09.671Z,64.71
2023-04-05T21:55:37.192Z,64.73
2023-04-05T21:58:06.158Z,67.21
2023-04-05T22:00:33.756Z,67.04
2023-04-05T22:03:01.297Z,66.48
2023-04-05T22:05:37.406Z,66.38
2023-04-05T22:08:07.220Z,66.22
2023-04-05T22:10:35.204Z,66.07
2023-04-05T22:13:02.764Z,66.17
2023-04-05T22:15:31.662Z,65.90
2023-04-05T22:17:59.325Z,68.26
2023-04-05T22:20:26.957Z,70.13
2023-04-05T22:22:54.521Z,69.66
2023-04-05T22:25:21.996Z,69.40
2023-04-05T22:27:49.490Z,67.48
2023-04-05T22:30:17.215Z,66.83
2023-04-05T22:32:46.668Z,67.18
2023-04-05T22:35:14.189Z,68.96
2023-04-05T22:37:41.719Z,70.61
2023-04-05T22:40:10.188Z,70.84
2023-04-05T22:42:38.814Z,70.42
2023-04-05T22:45:07.336Z,70.40
2023-04-05T22:47:34.843Z,69.58
2023-04-05T22:50:03.729Z,68.89
2023-04-05T22:52:31.190Z,69.28
2023-04-05T22:54:58.657Z,68.92
2023-04-05T23:00:21.585Z,68.20
2023-04-05T23:02:49.136Z,68.86
2023-04-05T23:05:18.135Z,68.54
2023-04-05T23:07:45.632Z,69.07
2023-04-05T23:10:13.122Z,68.93
2023-04-05T23:12:40.975Z,68.42
2023-04-05T23:15:09.134Z,68.19
2023-04-05T23:17:36.683Z,68.90
2023-04-05T23:20:05.689Z,70.48
2023-04-05T23:22:35.964Z,71.56
2023-04-05T23:25:04.343Z,71.83
2023-04-05T23:27:32.032Z,71.78
2023-04-05T23:29:59.731Z,70.88
2023-04-05T23:32:27.296Z,70.51
2023-04-05T23:34:54.790Z,71.18
2023-04-05T23:37:22.254Z,71.31
2023-04-05T23:39:51.081Z,70.60
2023-04-05T23:42:18.537Z,71.29
2023-04-05T23:44:46.021Z,70.99
2023-04-05T23:47:13.506Z,71.86
2023-04-05T23:49:41.076Z,72.94
2023-04-05T23:52:08.687Z,73.48
2023-04-05T23:54:36.158Z,72.99
2023-04-05T23:57:05.150Z,72.36
2023-04-05T23:59:32.673Z,72.61
